createdAt,value
2018-06-17T00:00:11.739Z,93.1
2018-06-17T00:01:13.138Z,92.9
2018-06-17T00:02:14.531Z,93.2
2018-06-17T00:03:15.922Z,93.2
2018-06-17T00:04:17.314Z,93.2
2018-06-17T00:05:18.704Z,93.0
2018-06-17T00:06:20.100Z,93.0
2018-06-17T00:07:21.492Z,92.9
2018-06-17T00:08:22.879Z,92.8
2018-06-17T00:09:24.274Z,92.5
2018-06-17T00:10:25.665Z,92.5
2018-06-17T00:11:27.058Z,92.7
2018-06-17T00:12:28.448Z,92.2
2018-06-17T00:13:29.841Z,92.4
2018-06-17T00:14:31.233Z,92.5
2018-06-17T00:15:32.627Z,92.7
2018-06-17T00:16:34.020Z,92.6
2018-06-17T00:17:35.412Z,92.3
2018-06-17T00:18:36.804Z,92.5
2018-06-17T00:19:38.216Z,92.4
2018-06-17T00:20:39.605Z,92.4
2018-06-17T00:21:40.996Z,92.3
2018-06-17T00:22:42.390Z,92.6
2018-06-17T00:23:43.778Z,92.7
2018-06-17T00:24:45.167Z,92.4
2018-06-17T00:25:46.557Z,92.4
2018-06-17T00:26:47.950Z,92.7
2018-06-17T00:27:49.348Z,92.6
2018-06-17T00:28:50.743Z,92.4
2018-06-17T00:29:52.136Z,92.7
2018-06-17T00:30:53.524Z,92.7
2018-06-17T00:31:54.938Z,92.2
2018-06-17T00:32:56.414Z,92.3
2018-06-17T00:33:57.809Z,92.3
2018-06-17T00:34:59.199Z,92.9
2018-06-17T00:36:00.592Z,93.0
2018-06-17T00:37:01.983Z,93.4
2018-06-17T00:38:03.370Z,93.7
2018-06-17T00:39:04.778Z,93.4
2018-06-17T00:40:06.153Z,93.3
2018-06-17T00:41:07.551Z,93.7
2018-06-17T00:42:08.943Z,93.5
2018-06-17T00:43:10.328Z,93.6
2018-06-17T00:44:11.721Z,93.8
2018-06-17T00:45:13.109Z,93.8
2018-06-17T00:46:14.501Z,93.5
2018-06-17T00:47:15.912Z,94.3
2018-06-17T00:48:17.287Z,94.2
2018-06-17T00:49:18.680Z,94.3
2018-06-17T00:50:20.071Z,93.7
2018-06-17T00:51:21.467Z,93.7
2018-06-17T00:52:22.854Z,93.6
2018-06-17T00:53:24.243Z,94.3
2018-06-17T00:54:25.636Z,94.0
2018-06-17T00:55:27.026Z,94.0
2018-06-17T00:56:28.419Z,94.2
2018-06-17T00:57:29.812Z,94.0
2018-06-17T00:58:31.206Z,93.8
2018-06-17T00:59:32.598Z,94.4
2018-06-17T01:00:33.988Z,94.5
2018-06-17T01:01:35.382Z,94.2
2018-06-17T01:02:36.774Z,93.7
2018-06-17T01:03:38.168Z,93.5
2018-06-17T01:04:39.561Z,93.9
2018-06-17T01:05:40.956Z,94.2
2018-06-17T01:06:42.348Z,94.2
2018-06-17T01:07:43.736Z,94.4
2018-06-17T01:08:45.130Z,93.7
2018-06-17T01:09:46.520Z,93.8
2018-06-17T01:10:47.915Z,94.1
2018-06-17T01:11:49.309Z,93.6
2018-06-17T01:12:50.701Z,93.5
2018-06-17T01:13:52.097Z,93.6
2018-06-17T01:14:53.485Z,93.7
2018-06-17T01:15:54.877Z,93.8
2018-06-17T01:16:56.268Z,94.3
2018-06-17T01:17:57.661Z,93.5
2018-06-17T01:18:59.169Z,93.5
2018-06-17T01:20:00.546Z,93.5
2018-06-17T01:21:01.941Z,94.2
2018-06-17T01:22:03.329Z,94.2
2018-06-17T01:23:04.721Z,94.2
2018-06-17T01:24:06.112Z,94.0
2018-06-17T01:25:07.508Z,94.4
2018-06-17T01:26:08.894Z,94.2
2018-06-17T01:27:10.290Z,95.3
2018-06-17T01:28:11.683Z,94.3
2018-06-17T01:29:13.065Z,94.8
2018-06-17T01:30:14.457Z,94.9
2018-06-17T01:31:15.850Z,94.8
2018-06-17T01:32:17.241Z,94.9
2018-06-17T01:33:18.632Z,94.3
2018-06-17T01:34:20.031Z,94.1
2018-06-17T01:35:21.421Z,93.6
2018-06-17T01:36:22.808Z,93.7
2018-06-17T01:37:24.201Z,93.4
2018-06-17T01:38:25.593Z,92.6
2018-06-17T01:39:26.985Z,93.0
2018-06-17T01:40:28.377Z,92.8
2018-06-17T01:41:29.770Z,93.0
2018-06-17T01:42:31.161Z,92.9
2018-06-17T01:43:32.553Z,92.7
2018-06-17T01:44:33.943Z,92.9
2018-06-17T01:45:35.333Z,93.1
2018-06-17T01:46:36.726Z,93.1
2018-06-17T01:47:38.119Z,92.7
2018-06-17T01:48:39.510Z,93.0
2018-06-17T01:49:40.899Z,93.0
2018-06-17T01:50:42.305Z,93.3
2018-06-17T01:51:43.692Z,92.9
2018-06-17T01:52:45.071Z,93.0
2018-06-17T01:53:46.462Z,92.5
2018-06-17T01:54:47.853Z,93.1
2018-06-17T01:55:49.249Z,92.9
2018-06-17T01:56:50.637Z,92.7
2018-06-17T01:57:52.027Z,92.3
2018-06-17T01:58:53.419Z,92.3
2018-06-17T01:59:54.807Z,92.0
2018-06-17T02:00:56.201Z,92.3
2018-06-17T02:01:57.589Z,92.3
2018-06-17T02:02:58.987Z,92.2
2018-06-17T02:04:00.385Z,91.6
2018-06-17T02:05:01.769Z,92.3
2018-06-17T02:06:03.214Z,92.4
2018-06-17T02:07:04.589Z,92.2
2018-06-17T02:08:05.982Z,92.3
2018-06-17T02:09:07.374Z,92.4
2018-06-17T02:10:08.761Z,92.1
2018-06-17T02:11:10.147Z,92.4
2018-06-17T02:12:11.539Z,92.3
2018-06-17T02:13:12.927Z,92.5
2018-06-17T02:14:14.317Z,92.3
2018-06-17T02:15:15.708Z,92.2
2018-06-17T02:16:17.101Z,92.4
2018-06-17T02:17:18.494Z,92.0
2018-06-17T02:18:19.882Z,92.1
2018-06-17T02:19:21.273Z,91.7
2018-06-17T02:20:22.663Z,91.7
2018-06-17T02:21:24.053Z,92.5
2018-06-17T02:22:25.453Z,91.9
2018-06-17T02:23:26.841Z,91.8
2018-06-17T02:24:28.233Z,91.8
2018-06-17T02:25:29.623Z,92.1
2018-06-17T02:26:31.017Z,92.6
2018-06-17T02:27:32.408Z,92.4
2018-06-17T02:28:33.801Z,92.3
2018-06-17T02:29:35.189Z,92.1
2018-06-17T02:30:36.578Z,92.2
2018-06-17T02:31:37.974Z,92.6
2018-06-17T02:32:39.370Z,92.6
2018-06-17T02:33:40.754Z,92.4
2018-06-17T02:34:42.148Z,92.2
2018-06-17T02:35:43.531Z,92.4
2018-06-17T02:36:44.964Z,92.4
2018-06-17T02:37:46.314Z,92.4
2018-06-17T02:38:47.704Z,92.9
2018-06-17T02:39:49.094Z,92.8
2018-06-17T02:40:50.486Z,93.1
2018-06-17T02:41:51.880Z,92.9
2018-06-17T02:42:53.265Z,93.0
2018-06-17T02:43:54.660Z,92.9
2018-06-17T02:44:56.055Z,92.8
2018-06-17T02:45:57.445Z,92.8
2018-06-17T02:46:58.834Z,92.6
2018-06-17T02:48:00.227Z,92.7
2018-06-17T02:49:01.617Z,93.2
2018-06-17T02:50:03.013Z,93.3
2018-06-17T02:51:04.403Z,92.7
2018-06-17T02:52:05.793Z,92.1
2018-06-17T02:53:07.188Z,92.3
2018-06-17T02:54:08.693Z,92.6
2018-06-17T02:55:10.125Z,92.4
2018-06-17T02:56:11.512Z,92.6
2018-06-17T02:57:12.901Z,93.0
2018-06-17T02:58:14.295Z,93.0
2018-06-17T02:59:15.682Z,93.2
2018-06-17T03:00:17.078Z,92.8
2018-06-17T03:01:18.468Z,92.8
2018-06-17T03:02:19.858Z,93.3
2018-06-17T03:03:21.245Z,92.4
2018-06-17T03:04:22.638Z,92.8
2018-06-17T03:05:24.028Z,92.9
2018-06-17T03:06:25.424Z,92.8
2018-06-17T03:07:26.817Z,92.8
2018-06-17T03:08:28.208Z,93.2
2018-06-17T03:09:29.602Z,92.8
2018-06-17T03:10:30.990Z,93.3
2018-06-17T03:11:32.379Z,93.3
2018-06-17T03:12:33.773Z,92.7
2018-06-17T03:13:35.166Z,93.0
2018-06-17T03:14:36.564Z,92.8
2018-06-17T03:15:37.956Z,93.1
2018-06-17T03:16:39.347Z,92.8
2018-06-17T03:17:40.736Z,93.0
2018-06-17T03:18:42.132Z,92.5
2018-06-17T03:19:43.524Z,92.8
2018-06-17T03:20:44.916Z,93.1
2018-06-17T03:21:46.309Z,92.9
2018-06-17T03:22:47.700Z,92.9
2018-06-17T03:23:49.090Z,93.1
2018-06-17T03:24:50.505Z,93.0
2018-06-17T03:25:51.875Z,93.0
2018-06-17T03:26:53.271Z,92.8
2018-06-17T03:27:54.668Z,93.1
2018-06-17T03:28:56.059Z,93.0
2018-06-17T03:29:57.453Z,92.8
2018-06-17T03:30:58.842Z,92.8
2018-06-17T03:32:00.239Z,92.3
2018-06-17T03:33:01.685Z,92.3
2018-06-17T03:34:03.021Z,92.4
2018-06-17T03:35:04.415Z,92.3
2018-06-17T03:36:05.807Z,92.3
2018-06-17T03:37:07.199Z,92.3
2018-06-17T03:38:08.592Z,92.2
2018-06-17T03:39:09.987Z,91.7
2018-06-17T03:40:11.382Z,92.0
2018-06-17T03:41:12.776Z,92.3
2018-06-17T03:42:14.238Z,92.0
2018-06-17T03:43:15.672Z,92.0
2018-06-17T03:44:17.063Z,92.5
2018-06-17T03:45:18.456Z,92.4
2018-06-17T03:46:19.847Z,92.3
2018-06-17T03:47:21.239Z,92.1
2018-06-17T03:48:22.633Z,91.6
2018-06-17T03:49:24.028Z,91.9
2018-06-17T03:50:25.424Z,91.8
2018-06-17T03:51:26.818Z,91.7
2018-06-17T03:52:28.209Z,91.9
2018-06-17T03:53:29.605Z,91.2
2018-06-17T03:54:30.999Z,91.2
2018-06-17T03:55:32.393Z,91.3
2018-06-17T03:56:33.794Z,91.5
2018-06-17T03:57:35.253Z,91.2
2018-06-17T03:58:36.652Z,91.0
2018-06-17T03:59:38.046Z,91.3
2018-06-17T04:00:39.438Z,91.1
2018-06-17T04:01:40.829Z,90.9
2018-06-17T04:02:42.229Z,91.3
2018-06-17T04:03:43.622Z,91.5
2018-06-17T04:04:45.016Z,91.3
2018-06-17T04:05:46.414Z,91.5
2018-06-17T04:06:47.810Z,92.1
2018-06-17T04:07:49.200Z,91.6
2018-06-17T04:08:50.594Z,91.7
2018-06-17T04:09:51.990Z,91.7
2018-06-17T04:10:53.386Z,91.7
2018-06-17T04:11:54.781Z,91.1
2018-06-17T04:12:56.174Z,91.1
2018-06-17T04:13:57.568Z,91.5
2018-06-17T04:14:58.963Z,91.1
2018-06-17T04:16:00.367Z,91.0
2018-06-17T04:17:01.762Z,90.7
2018-06-17T04:18:03.154Z,90.9
2018-06-17T04:19:04.549Z,91.1
2018-06-17T04:20:05.944Z,91.1
2018-06-17T04:21:07.337Z,91.1
2018-06-17T04:22:08.736Z,91.0
2018-06-17T04:23:10.130Z,91.1
2018-06-17T04:24:11.526Z,91.3
2018-06-17T04:25:12.922Z,91.3
2018-06-17T04:26:14.317Z,91.4
2018-06-17T04:27:15.713Z,92.1
2018-06-17T04:28:17.108Z,92.0
2018-06-17T04:29:18.555Z,91.6
2018-06-17T04:30:19.973Z,91.7
2018-06-17T04:31:21.366Z,92.1
2018-06-17T04:32:22.761Z,92.0
2018-06-17T04:33:24.160Z,92.0
2018-06-17T04:34:25.554Z,92.7
2018-06-17T04:35:26.951Z,92.1
2018-06-17T04:36:28.346Z,92.7
2018-06-17T04:37:29.743Z,92.7
2018-06-17T04:38:31.138Z,92.7
2018-06-17T04:39:32.536Z,92.2
2018-06-17T04:40:33.934Z,92.3
2018-06-17T04:41:35.324Z,92.3
2018-06-17T04:42:36.716Z,92.6
2018-06-17T04:43:38.117Z,92.3
2018-06-17T04:44:39.510Z,91.9
2018-06-17T04:45:40.905Z,92.4
2018-06-17T04:46:42.312Z,92.2
2018-06-17T04:47:43.701Z,92.1
2018-06-17T04:48:45.095Z,92.5
2018-06-17T04:49:46.485Z,91.6
2018-06-17T04:50:47.880Z,91.8
2018-06-17T04:51:49.277Z,91.6
2018-06-17T04:52:50.674Z,91.0
2018-06-17T04:53:52.072Z,90.6
2018-06-17T04:54:53.468Z,90.7
2018-06-17T04:55:54.864Z,90.2
2018-06-17T04:56:56.261Z,90.0
2018-06-17T04:57:57.682Z,90.6
2018-06-17T04:58:59.054Z,90.4
2018-06-17T05:00:00.507Z,90.5
2018-06-17T05:01:01.849Z,90.6
2018-06-17T05:02:03.247Z,90.8
2018-06-17T05:03:04.643Z,90.1
2018-06-17T05:04:06.038Z,90.2
2018-06-17T05:05:07.436Z,90.1
2018-06-17T05:06:08.829Z,90.2
2018-06-17T05:07:10.231Z,90.7
2018-06-17T05:08:11.628Z,90.4
2018-06-17T05:09:13.026Z,90.1
2018-06-17T05:10:14.418Z,90.5
2018-06-17T05:11:15.811Z,90.8
2018-06-17T05:12:17.206Z,90.9
2018-06-17T05:13:18.605Z,90.6
2018-06-17T05:14:19.997Z,90.5
2018-06-17T05:15:21.396Z,90.6
2018-06-17T05:16:22.808Z,90.7
2018-06-17T05:17:24.205Z,90.3
2018-06-17T05:18:25.601Z,90.4
2018-06-17T05:19:27.000Z,90.0
2018-06-17T05:20:28.393Z,90.1
2018-06-17T05:21:29.795Z,90.0
2018-06-17T05:22:31.196Z,90.2
2018-06-17T05:23:32.593Z,90.5
2018-06-17T05:24:33.992Z,90.8
2018-06-17T05:25:35.381Z,89.9
2018-06-17T05:26:36.780Z,89.7
2018-06-17T05:27:38.175Z,88.8
2018-06-17T05:28:39.574Z,88.7
2018-06-17T05:29:40.973Z,88.6
2018-06-17T05:30:42.372Z,87.5
2018-06-17T05:31:43.766Z,88.0
2018-06-17T05:32:45.163Z,87.8
2018-06-17T05:33:46.578Z,87.8
2018-06-17T05:34:47.958Z,87.7
2018-06-17T05:35:49.353Z,87.6
2018-06-17T05:36:50.747Z,87.3
2018-06-17T05:37:52.148Z,87.9
2018-06-17T05:38:53.544Z,87.0
2018-06-17T05:39:54.939Z,87.0
2018-06-17T05:40:56.335Z,87.1
2018-06-17T05:41:57.794Z,86.0
2018-06-17T05:42:59.193Z,85.0
2018-06-17T05:44:00.592Z,85.0
2018-06-17T05:45:01.991Z,85.6
2018-06-17T05:46:03.384Z,85.0
2018-06-17T05:47:04.778Z,86.0
2018-06-17T05:48:06.178Z,85.8
2018-06-17T05:49:07.571Z,85.8
2018-06-17T05:50:08.987Z,85.6
2018-06-17T05:51:10.485Z,85.6
2018-06-17T05:52:11.884Z,85.4
2018-06-17T05:53:13.281Z,85.8
2018-06-17T05:54:14.679Z,85.6
2018-06-17T05:55:16.270Z,85.1
2018-06-17T05:56:17.666Z,84.4
2018-06-17T05:57:19.157Z,85.0
2018-06-17T05:58:20.566Z,84.7
2018-06-17T05:59:21.945Z,84.4
2018-06-17T06:00:23.343Z,84.7
2018-06-17T06:01:24.735Z,85.7
2018-06-17T06:02:26.131Z,85.5
2018-06-17T06:03:27.663Z,85.7
2018-06-17T06:04:28.969Z,85.6
2018-06-17T06:05:30.408Z,84.9
2018-06-17T06:06:31.842Z,85.4
2018-06-17T06:07:33.263Z,85.2
2018-06-17T06:08:34.665Z,85.1
2018-06-17T06:09:36.072Z,85.6
2018-06-17T06:10:37.481Z,85.5
2018-06-17T06:11:38.905Z,85.0
2018-06-17T06:12:40.388Z,85.4
2018-06-17T06:13:41.840Z,84.6
2018-06-17T06:14:43.217Z,85.5
2018-06-17T06:15:44.748Z,84.9
2018-06-17T06:16:46.171Z,85.2
2018-06-17T06:17:47.623Z,85.1
2018-06-17T06:18:49.024Z,85.6
2018-06-17T06:19:50.427Z,84.9
2018-06-17T06:20:51.838Z,84.7
2018-06-17T06:21:53.236Z,83.7
2018-06-17T06:22:54.643Z,84.6
2018-06-17T06:23:56.087Z,84.2
2018-06-17T06:24:57.477Z,83.9
2018-06-17T06:25:58.901Z,83.6
2018-06-17T06:27:00.329Z,84.0
2018-06-17T06:28:01.759Z,84.3
2018-06-17T06:29:03.167Z,83.5
2018-06-17T06:30:04.568Z,83.2
2018-06-17T06:31:05.967Z,83.8
2018-06-17T06:32:07.370Z,84.3
2018-06-17T06:33:08.796Z,84.7
2018-06-17T06:34:10.223Z,85.0
2018-06-17T06:35:11.644Z,84.4
2018-06-17T06:36:13.032Z,84.7
2018-06-17T06:37:14.449Z,84.4
2018-06-17T06:38:15.879Z,83.4
2018-06-17T06:39:17.305Z,83.6
2018-06-17T06:40:18.748Z,83.1
2018-06-17T06:41:20.160Z,82.9
2018-06-17T06:42:21.571Z,83.6
2018-06-17T06:43:22.988Z,84.1
2018-06-17T06:44:24.414Z,83.5
2018-06-17T06:45:25.819Z,83.9
2018-06-17T06:46:27.216Z,83.6
2018-06-17T06:47:28.656Z,82.5
2018-06-17T06:48:30.057Z,83.1
2018-06-17T06:49:31.501Z,83.4
2018-06-17T06:50:32.932Z,83.6
2018-06-17T06:51:34.315Z,82.2
2018-06-17T06:52:35.711Z,82.2
2018-06-17T06:53:37.161Z,82.6
2018-06-17T06:54:38.624Z,82.0
2018-06-17T06:55:40.034Z,82.3
2018-06-17T06:56:41.439Z,82.3
2018-06-17T06:57:42.848Z,81.5
2018-06-17T06:58:44.247Z,81.1
2018-06-17T06:59:45.641Z,81.9
2018-06-17T07:00:47.039Z,82.0
2018-06-17T07:01:48.478Z,82.0
2018-06-17T07:02:49.908Z,81.9
2018-06-17T07:03:51.326Z,82.1
2018-06-17T07:04:52.764Z,82.9
2018-06-17T07:05:54.180Z,81.8
2018-06-17T07:06:55.596Z,81.6
2018-06-17T07:07:57.040Z,81.5
2018-06-17T07:08:58.447Z,80.8
2018-06-17T07:09:59.904Z,81.1
2018-06-17T07:11:01.244Z,80.8
2018-06-17T07:12:02.677Z,81.7
2018-06-17T07:13:04.079Z,82.5
2018-06-17T07:14:05.476Z,82.8
2018-06-17T07:15:06.873Z,82.3
2018-06-17T07:16:08.286Z,81.8
2018-06-17T07:17:12.991Z,81.1
2018-06-17T07:18:14.404Z,80.8
2018-06-17T07:19:15.832Z,81.3
2018-06-17T07:20:17.281Z,81.9
2018-06-17T07:21:18.703Z,82.4
2018-06-17T07:22:20.115Z,81.7
2018-06-17T07:23:21.530Z,81.3
2018-06-17T07:24:22.982Z,82.1
2018-06-17T07:25:24.361Z,81.3
2018-06-17T07:26:25.759Z,78.7
2018-06-17T07:27:27.155Z,79.0
2018-06-17T07:28:28.553Z,79.0
2018-06-17T07:29:29.953Z,79.3
2018-06-17T07:30:31.356Z,78.7
2018-06-17T07:31:32.817Z,79.3
2018-06-17T07:32:34.259Z,78.9
2018-06-17T07:33:35.625Z,78.5
2018-06-17T07:34:37.025Z,78.6
2018-06-17T07:35:38.413Z,78.7
2018-06-17T07:36:39.811Z,78.9
2018-06-17T07:37:41.213Z,78.4
2018-06-17T07:38:42.612Z,78.3
2018-06-17T07:39:44.015Z,78.9
2018-06-17T07:40:45.409Z,78.7
2018-06-17T07:41:46.806Z,78.0
2018-06-17T07:42:48.209Z,78.0
2018-06-17T07:43:49.629Z,78.9
2018-06-17T07:44:51.007Z,79.6
2018-06-17T07:45:52.425Z,79.4
2018-06-17T07:46:53.820Z,79.2
2018-06-17T07:47:55.216Z,78.8
2018-06-17T07:48:56.650Z,78.9
2018-06-17T07:49:58.050Z,78.6
2018-06-17T07:50:59.449Z,78.4
2018-06-17T07:52:00.855Z,79.0
2018-06-17T07:53:02.251Z,78.6
2018-06-17T07:54:03.653Z,78.7
2018-06-17T07:55:05.051Z,78.6
2018-06-17T07:56:06.469Z,78.6
2018-06-17T07:57:07.841Z,78.1
2018-06-17T07:58:09.239Z,79.0
2018-06-17T07:59:10.640Z,78.8
2018-06-17T08:00:12.043Z,78.8
2018-06-17T08:01:13.439Z,78.6
2018-06-17T08:02:14.840Z,78.5
2018-06-17T08:03:16.232Z,78.6
2018-06-17T08:04:17.640Z,78.6
2018-06-17T08:05:19.038Z,77.9
2018-06-17T08:06:20.438Z,78.1
2018-06-17T08:07:21.837Z,78.1
2018-06-17T08:08:23.237Z,77.8
2018-06-17T08:09:24.635Z,78.1
2018-06-17T08:10:26.035Z,78.0
2018-06-17T08:11:27.440Z,78.1
2018-06-17T08:12:28.836Z,77.7
2018-06-17T08:13:30.235Z,77.8
2018-06-17T08:14:31.635Z,78.5
2018-06-17T08:15:33.049Z,77.6
2018-06-17T08:16:34.450Z,78.0
2018-06-17T08:17:35.845Z,77.9
2018-06-17T08:18:37.246Z,77.9
2018-06-17T08:19:38.639Z,78.5
2018-06-17T08:20:40.083Z,78.0
2018-06-17T08:21:41.487Z,77.6
2018-06-17T08:22:42.889Z,78.1
2018-06-17T08:23:44.285Z,76.9
2018-06-17T08:24:45.686Z,76.9
2018-06-17T08:25:47.082Z,76.8
2018-06-17T08:26:48.499Z,76.1
2018-06-17T08:27:49.897Z,77.3
2018-06-17T08:28:51.296Z,76.4
2018-06-17T08:29:52.697Z,76.2
2018-06-17T08:30:54.094Z,75.2
2018-06-17T08:31:55.491Z,75.8
2018-06-17T08:32:56.888Z,75.6
2018-06-17T08:33:58.289Z,76.6
2018-06-17T08:34:59.687Z,76.2
2018-06-17T08:36:01.089Z,76.2
2018-06-17T08:37:02.488Z,76.1
2018-06-17T08:38:03.890Z,76.0
2018-06-17T08:39:05.296Z,75.4
2018-06-17T08:40:06.698Z,75.6
2018-06-17T08:41:08.095Z,75.2
2018-06-17T08:42:09.555Z,75.5
2018-06-17T08:43:10.959Z,74.8
2018-06-17T08:44:12.361Z,74.5
2018-06-17T08:45:13.759Z,75.0
2018-06-17T08:46:15.205Z,74.3
2018-06-17T08:47:16.673Z,75.0
2018-06-17T08:48:18.189Z,74.8
2018-06-17T08:49:19.825Z,74.4
2018-06-17T08:50:21.429Z,74.1
2018-06-17T08:51:22.896Z,74.6
2018-06-17T08:52:24.356Z,74.3
2018-06-17T08:53:25.904Z,73.5
2018-06-17T08:54:27.376Z,74.1
2018-06-17T08:55:28.896Z,73.1
2018-06-17T08:56:30.361Z,72.5
2018-06-17T08:57:31.776Z,72.8
2018-06-17T08:58:33.174Z,74.1
2018-06-17T08:59:34.573Z,72.3
2018-06-17T09:00:35.973Z,73.2
2018-06-17T09:01:37.375Z,71.7
2018-06-17T09:02:38.773Z,71.4
2018-06-17T09:03:40.168Z,71.9
2018-06-17T09:04:41.571Z,72.1
2018-06-17T09:05:42.972Z,72.9
2018-06-17T09:06:44.464Z,73.8
2018-06-17T09:07:45.924Z,75.1
2018-06-17T09:08:47.321Z,75.1
2018-06-17T09:09:52.500Z,74.4
2018-06-17T09:10:53.897Z,74.9
2018-06-17T09:11:55.313Z,75.0
2018-06-17T09:12:56.728Z,75.3
2018-06-17T09:13:58.127Z,74.7
2018-06-17T09:14:59.522Z,75.3
2018-06-17T09:16:00.921Z,74.9
2018-06-17T09:17:02.317Z,74.8
2018-06-17T09:18:03.717Z,74.4
2018-06-17T09:19:05.118Z,74.3
2018-06-17T09:20:06.516Z,75.0
2018-06-17T09:21:07.917Z,74.4
2018-06-17T09:22:09.315Z,75.8
2018-06-17T09:23:10.715Z,75.5
2018-06-17T09:24:12.109Z,74.8
2018-06-17T09:25:13.559Z,73.2
2018-06-17T09:26:14.911Z,73.1
2018-06-17T09:27:16.314Z,72.0
2018-06-17T09:28:17.711Z,72.9
2018-06-17T09:29:19.107Z,72.9
2018-06-17T09:30:20.505Z,72.9
2018-06-17T09:31:21.901Z,72.4
2018-06-17T09:32:23.303Z,72.9
2018-06-17T09:33:24.771Z,71.9
2018-06-17T09:34:26.178Z,71.4
2018-06-17T09:35:27.571Z,71.7
2018-06-17T09:36:28.970Z,72.8
2018-06-17T09:37:30.373Z,72.5
2018-06-17T09:38:31.772Z,72.3
2018-06-17T09:39:33.173Z,73.0
2018-06-17T09:40:34.573Z,72.7
2018-06-17T09:41:36.000Z,72.1
2018-06-17T09:42:37.396Z,71.7
2018-06-17T09:43:38.797Z,71.9
2018-06-17T09:44:40.196Z,71.1
2018-06-17T09:45:41.651Z,70.5
2018-06-17T09:46:43.056Z,70.5
2018-06-17T09:47:44.458Z,70.4
2018-06-17T09:48:45.867Z,70.5
2018-06-17T09:49:47.283Z,70.1
2018-06-17T09:50:48.696Z,69.3
2018-06-17T09:51:50.096Z,69.8
2018-06-17T09:52:51.509Z,69.3
2018-06-17T09:53:52.907Z,70.1
2018-06-17T09:54:54.307Z,70.5
2018-06-17T09:55:55.708Z,71.4
2018-06-17T09:56:57.107Z,71.4
2018-06-17T09:57:58.504Z,70.1
2018-06-17T09:58:59.904Z,70.9
2018-06-17T10:00:01.306Z,71.3
2018-06-17T10:01:02.709Z,70.5
2018-06-17T10:02:04.107Z,70.8
2018-06-17T10:03:05.514Z,70.7
2018-06-17T10:04:06.915Z,69.1
2018-06-17T10:05:08.312Z,67.1
2018-06-17T10:06:09.712Z,66.9
2018-06-17T10:07:11.126Z,66.8
2018-06-17T10:08:12.545Z,67.6
2018-06-17T10:09:13.955Z,68.5
2018-06-17T10:10:15.358Z,67.8
2018-06-17T10:11:16.757Z,68.3
2018-06-17T10:12:18.153Z,68.0
2018-06-17T10:13:19.556Z,69.3
2018-06-17T10:14:20.962Z,69.4
2018-06-17T10:15:22.363Z,69.5
2018-06-17T10:16:23.800Z,69.5
2018-06-17T10:17:25.185Z,69.2
2018-06-17T10:18:26.628Z,69.9
2018-06-17T10:19:28.032Z,69.7
2018-06-17T10:20:29.429Z,69.5
2018-06-17T10:21:30.843Z,70.4
2018-06-17T10:22:32.256Z,70.6
2018-06-17T10:23:33.686Z,69.5
2018-06-17T10:24:35.090Z,69.3
2018-06-17T10:25:36.506Z,69.7
2018-06-17T10:26:37.905Z,68.8
2018-06-17T10:27:39.304Z,68.5
2018-06-17T10:28:40.704Z,69.1
2018-06-17T10:29:42.116Z,70.7
2018-06-17T10:30:43.524Z,71.6
2018-06-17T10:31:44.924Z,70.5
2018-06-17T10:32:46.323Z,70.4
2018-06-17T10:33:47.722Z,71.0
2018-06-17T10:34:49.121Z,70.2
2018-06-17T10:35:50.522Z,70.5
2018-06-17T10:36:51.946Z,70.3
2018-06-17T10:37:53.480Z,71.4
2018-06-17T10:38:54.903Z,71.4
2018-06-17T10:39:56.305Z,70.3
2018-06-17T10:40:57.724Z,70.6
2018-06-17T10:41:59.129Z,69.6
2018-06-17T10:43:00.568Z,69.6
2018-06-17T10:44:01.971Z,70.3
2018-06-17T10:45:03.372Z,70.8
2018-06-17T10:46:04.792Z,72.9
2018-06-17T10:47:06.234Z,72.3
2018-06-17T10:48:07.659Z,72.1
2018-06-17T10:49:09.076Z,71.6
2018-06-17T10:50:10.458Z,71.7
2018-06-17T10:51:11.879Z,71.0
2018-06-17T10:52:13.313Z,71.4
2018-06-17T10:53:14.736Z,71.7
2018-06-17T10:54:16.138Z,69.9
2018-06-17T10:55:17.563Z,69.7
2018-06-17T10:56:18.983Z,69.7
2018-06-17T10:57:20.378Z,68.1
2018-06-17T10:58:21.798Z,67.5
2018-06-17T10:59:23.227Z,68.4
2018-06-17T11:00:24.670Z,69.3
2018-06-17T11:01:26.064Z,68.3
2018-06-17T11:02:27.508Z,68.6
2018-06-17T11:03:28.933Z,69.4
2018-06-17T11:04:30.333Z,69.8
2018-06-17T11:05:31.753Z,70.1
2018-06-17T11:06:33.162Z,69.9
2018-06-17T11:07:34.565Z,70.2
2018-06-17T11:08:35.964Z,70.6
2018-06-17T11:09:37.359Z,69.9
2018-06-17T11:10:38.760Z,70.5
2018-06-17T11:11:40.162Z,71.6
2018-06-17T11:12:41.560Z,71.1
2018-06-17T11:13:42.961Z,71.0
2018-06-17T11:14:44.362Z,72.0
2018-06-17T11:15:45.759Z,72.2
2018-06-17T11:16:47.193Z,72.3
2018-06-17T11:17:48.604Z,71.6
2018-06-17T11:18:49.992Z,71.6
2018-06-17T11:19:51.391Z,70.7
2018-06-17T11:20:52.816Z,71.4
2018-06-17T11:21:54.227Z,71.5
2018-06-17T11:22:55.633Z,72.0
2018-06-17T11:23:57.059Z,72.7
2018-06-17T11:24:58.526Z,72.8
2018-06-17T11:25:59.941Z,72.4
2018-06-17T11:27:01.334Z,72.7
2018-06-17T11:28:02.729Z,72.2
2018-06-17T11:29:04.131Z,72.9
2018-06-17T11:30:05.535Z,72.8
2018-06-17T11:31:06.953Z,71.9
2018-06-17T11:32:08.354Z,72.1
2018-06-17T11:33:09.756Z,71.9
2018-06-17T11:34:11.153Z,72.6
2018-06-17T11:35:12.558Z,72.5
2018-06-17T11:36:13.960Z,72.7
2018-06-17T11:37:15.356Z,72.8
2018-06-17T11:38:16.753Z,72.9
2018-06-17T11:39:18.145Z,72.6
2018-06-17T11:40:19.544Z,72.7
2018-06-17T11:41:20.944Z,72.1
2018-06-17T11:42:22.343Z,72.6
2018-06-17T11:43:23.742Z,72.3
2018-06-17T11:44:25.149Z,71.7
2018-06-17T11:45:26.548Z,71.6
2018-06-17T11:46:27.948Z,72.0
2018-06-17T11:47:29.342Z,72.5
2018-06-17T11:48:30.744Z,72.4
2018-06-17T11:49:32.145Z,71.8
2018-06-17T11:50:33.542Z,72.7
2018-06-17T11:51:34.940Z,71.9
2018-06-17T11:52:36.335Z,72.8
2018-06-17T11:53:37.736Z,72.8
2018-06-17T11:54:39.137Z,73.0
2018-06-17T11:55:40.539Z,72.8
2018-06-17T11:56:41.939Z,73.4
2018-06-17T11:57:43.337Z,73.6
2018-06-17T11:58:44.732Z,73.2
2018-06-17T11:59:46.181Z,72.2
2018-06-17T12:00:47.536Z,72.0
2018-06-17T12:01:48.964Z,71.2
2018-06-17T12:02:50.337Z,71.5
2018-06-17T12:03:51.737Z,70.8
2018-06-17T12:04:53.142Z,69.8
2018-06-17T12:05:54.539Z,69.1
2018-06-17T12:06:55.938Z,69.9
2018-06-17T12:07:57.343Z,69.3
2018-06-17T12:08:58.756Z,69.1
2018-06-17T12:10:00.156Z,68.7
2018-06-17T12:11:01.555Z,69.0
2018-06-17T12:12:02.981Z,69.5
2018-06-17T12:13:04.377Z,69.4
2018-06-17T12:14:05.778Z,69.7
2018-06-17T12:15:07.176Z,70.8
2018-06-17T12:16:08.573Z,69.9
2018-06-17T12:17:09.976Z,69.8
2018-06-17T12:18:11.374Z,69.3
2018-06-17T12:19:12.773Z,69.3
2018-06-17T12:20:14.176Z,68.7
2018-06-17T12:21:15.568Z,68.7
2018-06-17T12:22:16.961Z,69.6
2018-06-17T12:23:18.358Z,69.4
2018-06-17T12:24:19.759Z,69.2
2018-06-17T12:25:21.193Z,69.5
2018-06-17T12:26:22.560Z,69.9
2018-06-17T12:27:23.955Z,70.5
2018-06-17T12:28:25.355Z,70.4
2018-06-17T12:29:26.753Z,70.7
2018-06-17T12:30:28.153Z,70.3
2018-06-17T12:31:29.552Z,69.5
2018-06-17T12:32:30.947Z,69.8
2018-06-17T12:33:32.393Z,69.5
2018-06-17T12:34:33.748Z,69.1
2018-06-17T12:35:35.144Z,69.2
2018-06-17T12:36:36.544Z,69.1
2018-06-17T12:37:37.940Z,69.8
2018-06-17T12:38:39.340Z,70.8
2018-06-17T12:39:40.743Z,71.0
2018-06-17T12:40:42.171Z,70.2
2018-06-17T12:41:43.546Z,70.6
2018-06-17T12:42:44.942Z,69.3
2018-06-17T12:43:46.340Z,69.5
2018-06-17T12:44:47.740Z,69.7
2018-06-17T12:45:49.138Z,69.1
2018-06-17T12:46:50.540Z,69.4
2018-06-17T12:47:52.002Z,69.2
2018-06-17T12:48:53.405Z,69.5
2018-06-17T12:49:54.803Z,70.3
2018-06-17T12:50:56.200Z,70.4
2018-06-17T12:51:57.600Z,70.9
2018-06-17T12:52:59.002Z,70.0
2018-06-17T12:54:00.403Z,70.2
2018-06-17T12:55:01.807Z,69.3
2018-06-17T12:56:03.441Z,69.0
2018-06-17T12:57:04.853Z,68.4
2018-06-17T12:58:06.303Z,69.1
2018-06-17T12:59:07.723Z,69.6
2018-06-17T13:00:09.189Z,68.4
2018-06-17T13:01:10.589Z,68.3
2018-06-17T13:02:11.991Z,68.3
2018-06-17T13:03:13.511Z,68.0
2018-06-17T13:04:14.908Z,68.4
2018-06-17T13:05:16.306Z,67.6
2018-06-17T13:06:17.709Z,66.6
2018-06-17T13:07:19.110Z,65.1
2018-06-17T13:08:20.511Z,65.7
2018-06-17T13:09:21.915Z,66.4
2018-06-17T13:10:23.312Z,67.0
2018-06-17T13:11:24.720Z,65.7
2018-06-17T13:12:26.119Z,65.7
2018-06-17T13:13:27.521Z,66.2
2018-06-17T13:14:28.924Z,66.1
2018-06-17T13:15:30.325Z,65.4
2018-06-17T13:16:31.724Z,66.7
2018-06-17T13:17:33.121Z,66.7
2018-06-17T13:18:34.520Z,66.5
2018-06-17T13:19:35.919Z,66.6
2018-06-17T13:20:37.321Z,67.5
2018-06-17T13:21:38.721Z,68.0
2018-06-17T13:22:40.122Z,67.5
2018-06-17T13:23:41.524Z,67.9
2018-06-17T13:24:42.922Z,68.0
2018-06-17T13:25:44.320Z,69.9
2018-06-17T13:26:45.721Z,69.0
2018-06-17T13:27:47.122Z,69.5
2018-06-17T13:28:48.523Z,69.8
2018-06-17T13:29:49.921Z,70.3
2018-06-17T13:30:51.357Z,68.1
2018-06-17T13:31:52.758Z,68.6
2018-06-17T13:32:54.161Z,67.2
2018-06-17T13:33:55.596Z,67.8
2018-06-17T13:34:57.022Z,68.1
2018-06-17T13:35:58.424Z,69.4
2018-06-17T13:36:59.825Z,69.1